Sunday, December 21, 2014
03:18 UTC
  |  Log In   |  Register Free
Airport Search:

Yellowstone Regional Airport
(KCOD)

Yellowstone Regional Airport Diagram
No Airport Diagram Available

FAA data valid effective November 13, 2014 - January 08, 2015 (unless otherwise noted).

 
 
 
 
 
 
 
 
 
 
 
 
 
 

Current Aviation Weather for Yellowstone Regional Airport (KCOD)

The most recent METAR observation for KCOD was updated at: 2112
METAR Summary (Translated METAR)
KCOD
182055Z AUTO 29007KT 10SM CLR 03/M06 A2997 RMK AO1 60001 57014
KPOY
182055Z AUTO 13009KT 10SM CLR M03/M07 A2997 RMK AO2
(23.1 nm NE from KCOD)
KU68
182055Z AUTO 00000KT 10SM CLR M03/M06 A3003 RMK AO2 PWINO
(34.1 nm NE from KCOD)
TAF Summary (Translated TAF)
KCOD
201720Z 2018/2118 23009KT P6SM BKN100 FM202000 23012G18KT P6SM SCT050 BKN100 WS020/26035KT FM210600 25018G28KT P6SM BKN100 AMD LTD TO CLD VIS AND WIND
  Airport Weather Conditions for KCOD

 Current Weather at COD
34° F
A Few Clouds
Southeast winds at 13.8 mph
COD NOAA Radar

Pressure: 29.78 in
Humidity: 65%
Wind: Southeast at 13.8 MPH (12 KT)
Dew Point: 23.0°F
Visibility: 10.00 mi


Airport Weather Forecast for KCOD

Translated METAR and TAF for KCOD
Translated METAR for KCOD (0319 UTC 21 December 2014)
found at http://aviationweather.gov/adds/metars/
 
METAR text: KCOD 210315Z AUTO 16011KT 10SM SCT085 M02/M06 A2977 RMK AO1
Conditions at: KCOD (CODY , WY, US) observed 0315 UTC 21 December 2014
Temperature: -2.0°C (28°F)
Dewpoint: -6.0°C (21°F) [RH = 74%]
Pressure (altimeter): 29.77 inches Hg (1008.2 mb)
Winds: from the SSE (160 degrees) at 13 MPH (11 knots; 5.7 m/s)
Visibility: 10 or more miles (16+ km)
Ceiling: at least 12,000 feet AGL
Clouds: scattered clouds at 8500 feet AGL
Weather: automated observation with no human augmentation;
there may or may not be significant weather present at this time
Translated TAF for KCOD
Forecast for: KCOD (CODY , WY, US)
TAF Text: KCOD 202327Z 2100/2124 21009KT P6SM SCT060 BKN090
Forecast period: 0000 to 0300 UTC 21 December 2014
Forecast type: FROM: standard forecast or significant change
Winds: from the SSW (210 degrees) at 10 MPH (9 knots; 4.7 m/s)
Visibility: 6 or more miles (10+ km)
Ceiling: 9000 feet AGL
Clouds: scattered clouds at 6000 feet AGL
broken clouds at 9000 feet AGL
Weather: no significant weather forecast for this period
TAF Text: FM210300 23012G18KT P6SM SCT050 BKN090 WS020/26035KT
Forecast period: 0300 to 0600 UTC 21 December 2014
Forecast type: FROM: standard forecast or significant change
Winds: from the SW (230 degrees) at 14 MPH (12 knots; 6.2 m/s)
gusting to 21 MPH (18 knots; 9.4 m/s)
Visibility: 6 or more miles (10+ km)
Ceiling: 9000 feet AGL
Clouds: scattered clouds at 5000 feet AGL
broken clouds at 9000 feet AGL
Wind shear: at 2000 feet ( 610 m) AGL, from the W (260 degrees) at 40 MPH (35 knots; 18.2 m/s)
Weather: no significant weather forecast for this period
TAF Text: FM210600 25018G28KT P6SM SCT050 BKN100 AMD LTD TO CLD VIS AND WIND
Forecast period: 0600 UTC 21 December 2014 to 0000 UTC 22 December 2014
Forecast type: FROM: standard forecast or significant change
Winds: from the WSW (250 degrees) at 21 MPH (18 knots; 9.4 m/s)
gusting to 32 MPH (28 knots; 14.6 m/s)
Visibility: 6 or more miles (10+ km)
Ceiling: 10000 feet AGL
Clouds: scattered clouds at 5000 feet AGL
broken clouds at 10000 feet AGL
Weather: no significant weather forecast for this period

Find All Airport Services Find A Hotel Find A Rental Car Find A Golf Course Find A Restaurant $100 Hamburger



FBO's on the Field
FBO Company Facility Photos Services Transportation Aviation Fuel Prices: Prices include tax
Catering Weather Repair Courtesy Rental Type 100LL JetA JetA+ MOGAS 8087
 
Choice Aviation, LLC

This FBO has not yet been rated
FS:Avfuel
Last Updated: Dec-08
Login to update fuel prices
SS:
Contact Choice Aviation, LLCMore FBO Information
 
Add another FBO Facility Photos Catering Weather Repair Courtesy Rental Type 100LL JetA JetA+ MOGAS 8087
Services Transportation Aviation Fuel Prices: Prices include tax


model-print
model-print
model-print
model-print